createdAt,value
2022-12-06T00:01:50.422Z,6.25
2022-12-06T00:04:17.075Z,6.60
2022-12-06T00:06:45.156Z,7.05
2022-12-06T00:09:16.480Z,6.65
2022-12-06T00:11:44.107Z,7.32
2022-12-06T00:14:10.852Z,6.50
2022-12-06T00:16:37.391Z,7.45
2022-12-06T00:19:04.171Z,7.20
2022-12-06T00:21:31.881Z,7.60
2022-12-06T00:24:02.380Z,6.75
2022-12-06T00:26:29.627Z,6.57
2022-12-06T00:28:56.850Z,6.80
2022-12-06T00:31:24.227Z,6.53
2022-12-06T00:33:50.927Z,6.97
2022-12-06T00:36:18.351Z,7.75
2022-12-06T00:38:44.915Z,6.82
2022-12-06T00:41:12.744Z,6.28
2022-12-06T00:43:39.515Z,5.82
2022-12-06T00:46:06.771Z,6.13
2022-12-06T00:48:33.203Z,6.80
2022-12-06T00:50:59.672Z,6.13
2022-12-06T00:53:26.438Z,7.65
2022-12-06T00:55:52.915Z,6.85
2022-12-06T00:58:19.372Z,6.75
2022-12-06T01:00:45.676Z,7.53
2022-12-06T01:03:12.349Z,6.20
2022-12-06T01:05:42.542Z,6.82
2022-12-06T01:08:09.252Z,6.85
2022-12-06T01:10:36.220Z,7.05
2022-12-06T01:13:02.906Z,6.32
2022-12-06T01:15:29.175Z,7.47
2022-12-06T01:17:55.522Z,7.65
2022-12-06T01:20:21.842Z,6.63
2022-12-06T01:22:48.089Z,7.50
2022-12-06T01:25:14.393Z,7.00
2022-12-06T01:27:40.682Z,6.82
2022-12-06T01:30:07.284Z,6.70
2022-12-06T01:32:33.577Z,7.20
2022-12-06T01:34:59.825Z,6.70
2022-12-06T01:37:26.275Z,6.32
2022-12-06T01:39:52.654Z,7.53
2022-12-06T01:42:19.099Z,6.47
2022-12-06T01:44:48.334Z,6.97
2022-12-06T01:47:24.786Z,7.63
2022-12-06T01:49:53.997Z,7.32
2022-12-06T01:52:22.617Z,7.40
2022-12-06T01:54:48.977Z,7.20
2022-12-06T01:57:16.506Z,7.38
2022-12-06T01:59:43.495Z,7.13
2022-12-06T02:02:09.831Z,7.00
2022-12-06T02:04:36.246Z,7.05
2022-12-06T02:07:02.967Z,7.38
2022-12-06T02:09:29.528Z,6.47
2022-12-06T02:11:55.931Z,6.40
2022-12-06T02:14:28.241Z,7.55
2022-12-06T02:17:03.633Z,7.35
2022-12-06T02:19:53.019Z,7.82
2022-12-06T02:22:25.670Z,7.53
2022-12-06T02:25:04.000Z,7.15
2022-12-06T02:27:44.234Z,7.75
2022-12-06T02:30:29.075Z,7.00
2022-12-06T02:33:10.367Z,6.95
2022-12-06T02:35:41.111Z,7.60
2022-12-06T02:38:13.361Z,6.72
2022-12-06T02:40:42.741Z,7.43
2022-12-06T02:43:12.735Z,7.00
2022-12-06T02:45:41.507Z,6.60
2022-12-06T02:48:08.960Z,7.10
2022-12-06T02:50:38.431Z,7.18
2022-12-06T02:53:06.118Z,7.00
2022-12-06T02:55:33.070Z,6.85
2022-12-06T02:57:59.277Z,6.60
2022-12-06T03:00:30.061Z,6.90
2022-12-06T03:03:04.868Z,6.55
2022-12-06T03:05:39.819Z,6.28
2022-12-06T03:08:10.209Z,6.75
2022-12-06T03:10:43.358Z,6.25
2022-12-06T03:13:18.537Z,5.57
2022-12-06T03:15:49.402Z,5.88
2022-12-06T03:18:21.764Z,5.25
2022-12-06T03:20:51.733Z,5.50
2022-12-06T03:23:20.543Z,5.88
2022-12-06T03:25:47.550Z,5.75
2022-12-06T03:28:15.343Z,5.15
2022-12-06T03:30:43.713Z,5.65
2022-12-06T03:33:11.045Z,5.28
2022-12-06T03:35:37.724Z,4.47
2022-12-06T03:38:16.610Z,5.07
2022-12-06T03:40:45.006Z,4.75
2022-12-06T03:43:13.411Z,4.40
2022-12-06T03:45:42.793Z,4.80
2022-12-06T03:48:15.246Z,4.18
2022-12-06T03:50:45.086Z,4.47
2022-12-06T03:53:11.441Z,3.88
2022-12-06T03:55:37.699Z,4.00
2022-12-06T03:58:04.019Z,4.55
2022-12-06T04:00:30.300Z,4.32
2022-12-06T04:02:56.573Z,3.83
2022-12-06T04:05:22.878Z,4.30
2022-12-06T04:07:49.217Z,4.07
2022-12-06T04:10:15.536Z,3.83
2022-12-06T04:13:00.622Z,4.20
2022-12-06T04:15:30.870Z,4.22
2022-12-06T04:18:16.539Z,4.03
2022-12-06T04:21:01.373Z,3.65
2022-12-06T04:23:28.164Z,3.78
2022-12-06T04:25:54.802Z,3.50
2022-12-06T04:28:40.001Z,4.38
2022-12-06T04:31:25.305Z,3.83
2022-12-06T04:34:10.595Z,3.90
2022-12-06T04:36:56.522Z,3.35
2022-12-06T04:39:23.304Z,3.45
2022-12-06T04:42:08.498Z,3.33
2022-12-06T04:44:34.928Z,3.58
2022-12-06T04:47:01.256Z,3.30
2022-12-06T04:49:27.822Z,3.50
2022-12-06T04:51:54.855Z,3.45
2022-12-06T04:54:21.961Z,3.45
2022-12-06T04:56:48.467Z,3.45
2022-12-06T04:59:14.916Z,3.30
2022-12-06T05:01:41.354Z,3.13
2022-12-06T05:04:07.786Z,3.83
2022-12-06T05:06:34.430Z,3.17
2022-12-06T05:09:00.697Z,3.30
2022-12-06T05:11:26.975Z,2.95
2022-12-06T05:13:53.203Z,3.08
2022-12-06T05:16:19.602Z,3.08
2022-12-06T05:18:45.917Z,2.53
2022-12-06T05:21:16.763Z,3.33
2022-12-06T05:23:43.126Z,2.85
2022-12-06T05:26:16.899Z,3.17
2022-12-06T05:28:43.955Z,3.05
2022-12-06T05:31:10.704Z,3.08
2022-12-06T05:33:37.163Z,3.15
2022-12-06T05:36:10.574Z,3.00
2022-12-06T05:38:36.859Z,3.20
2022-12-06T05:41:03.556Z,3.10
2022-12-06T05:43:30.161Z,3.20
2022-12-06T05:45:57.051Z,3.00
2022-12-06T05:48:23.694Z,3.28
2022-12-06T05:50:50.263Z,3.10
2022-12-06T05:53:16.529Z,2.50
2022-12-06T05:55:43.115Z,2.97
2022-12-06T05:58:09.786Z,2.70
2022-12-06T06:00:36.569Z,3.00
2022-12-06T06:03:03.694Z,3.28
2022-12-06T06:05:30.678Z,3.00
2022-12-06T06:07:57.223Z,3.08
2022-12-06T06:10:24.199Z,3.17
2022-12-06T06:12:50.888Z,2.80
2022-12-06T06:15:17.469Z,3.13
2022-12-06T06:17:43.714Z,2.95
2022-12-06T06:20:13.624Z,2.65
2022-12-06T06:22:40.528Z,2.50
2022-12-06T06:25:07.439Z,2.80
2022-12-06T06:27:36.898Z,2.60
2022-12-06T06:30:07.068Z,3.25
2022-12-06T06:32:33.595Z,2.50
2022-12-06T06:34:59.955Z,2.60
2022-12-06T06:37:26.324Z,2.30
2022-12-06T06:39:52.601Z,2.15
2022-12-06T06:42:18.825Z,2.42
2022-12-06T06:44:45.111Z,2.55
2022-12-06T06:47:14.399Z,2.63
2022-12-06T06:49:41.180Z,3.00
2022-12-06T06:52:08.551Z,2.55
2022-12-06T06:54:34.776Z,2.65
2022-12-06T06:57:03.003Z,2.60
2022-12-06T06:59:29.359Z,2.90
2022-12-06T07:01:55.988Z,2.42
2022-12-06T07:04:22.576Z,2.50
2022-12-06T07:06:48.846Z,2.85
2022-12-06T07:09:15.115Z,2.42
2022-12-06T07:11:41.370Z,2.38
2022-12-06T07:14:10.932Z,2.33
2022-12-06T07:16:37.466Z,2.40
2022-12-06T07:19:08.821Z,2.00
2022-12-06T07:21:35.778Z,2.17
2022-12-06T07:24:02.172Z,2.15
2022-12-06T07:26:28.995Z,2.05
2022-12-06T07:28:57.616Z,2.38
2022-12-06T07:31:25.593Z,2.38
2022-12-06T07:33:53.407Z,2.28
2022-12-06T07:36:19.935Z,2.50
2022-12-06T07:38:50.198Z,2.53
2022-12-06T07:41:37.517Z,2.78
2022-12-06T07:44:22.316Z,2.40
2022-12-06T07:46:48.686Z,2.78
2022-12-06T07:49:16.074Z,2.60
2022-12-06T07:51:42.860Z,2.80
2022-12-06T07:54:09.105Z,2.47
2022-12-06T07:56:35.378Z,2.85
2022-12-06T07:59:01.641Z,2.70
2022-12-06T08:01:28.272Z,2.92
2022-12-06T08:03:56.239Z,2.83
2022-12-06T08:06:23.191Z,3.20
2022-12-06T08:08:49.714Z,2.92
2022-12-06T08:11:16.162Z,3.22
2022-12-06T08:13:45.259Z,2.72
2022-12-06T08:16:15.076Z,3.03
2022-12-06T08:18:41.745Z,3.50
2022-12-06T08:21:08.629Z,2.88
2022-12-06T08:23:35.059Z,3.10
2022-12-06T08:26:02.464Z,2.70
2022-12-06T08:28:29.320Z,2.90
2022-12-06T08:31:01.425Z,2.70
2022-12-06T08:33:31.928Z,2.97
2022-12-06T08:35:58.237Z,3.15
2022-12-06T08:38:24.533Z,3.03
2022-12-06T08:40:50.821Z,2.78
2022-12-06T08:43:20.071Z,3.20
2022-12-06T08:45:50.010Z,2.72
2022-12-06T08:48:18.582Z,2.97
2022-12-06T08:50:45.035Z,3.10
2022-12-06T08:53:11.319Z,2.97
2022-12-06T08:55:37.660Z,2.60
2022-12-06T08:58:04.110Z,2.75
2022-12-06T09:00:30.418Z,2.65
2022-12-06T09:02:57.039Z,2.65
2022-12-06T09:05:23.309Z,2.70
2022-12-06T09:07:49.644Z,2.85
2022-12-06T09:10:15.979Z,2.90
2022-12-06T09:12:47.886Z,2.83
2022-12-06T09:15:14.163Z,3.67
2022-12-06T09:17:40.634Z,3.25
2022-12-06T09:20:08.404Z,3.17
2022-12-06T09:22:35.026Z,2.83
2022-12-06T09:25:01.294Z,3.20
2022-12-06T09:27:29.777Z,2.70
2022-12-06T09:29:55.995Z,3.08
2022-12-06T09:32:22.201Z,3.08
2022-12-06T09:34:48.412Z,3.05
2022-12-06T09:37:14.678Z,2.60
2022-12-06T09:39:43.734Z,3.50
2022-12-06T09:42:20.213Z,2.55
2022-12-06T09:47:31.579Z,2.75
2022-12-06T09:50:12.056Z,2.63
2022-12-06T09:52:44.321Z,2.55
2022-12-06T09:55:21.201Z,2.80
2022-12-06T09:57:56.523Z,2.88
2022-12-06T10:00:23.547Z,2.25
2022-12-06T10:02:52.786Z,2.40
2022-12-06T10:05:37.603Z,2.72
2022-12-06T10:08:10.592Z,2.28
2022-12-06T10:10:44.116Z,2.30
2022-12-06T10:13:13.259Z,2.05
2022-12-06T10:15:58.745Z,2.30
2022-12-06T10:18:25.056Z,2.28
2022-12-06T10:21:14.561Z,2.45
2022-12-06T10:23:46.922Z,1.88
2022-12-06T10:26:19.318Z,2.33
2022-12-06T10:29:01.039Z,2.00
2022-12-06T10:31:29.998Z,2.08
2022-12-06T10:34:11.380Z,1.80
2022-12-06T10:36:56.462Z,1.80
2022-12-06T10:39:27.750Z,1.95
2022-12-06T10:42:11.210Z,1.90
2022-12-06T10:44:43.382Z,1.92
2022-12-06T10:47:21.436Z,2.17
2022-12-06T10:50:00.169Z,1.88
2022-12-06T10:52:31.727Z,1.85
2022-12-06T10:55:10.634Z,2.40
2022-12-06T10:57:46.105Z,2.05
2022-12-06T11:00:20.373Z,1.67
2022-12-06T11:02:51.182Z,2.03
2022-12-06T11:05:17.616Z,2.35
2022-12-06T11:07:46.441Z,1.80
2022-12-06T11:10:19.404Z,2.13
2022-12-06T11:12:46.126Z,1.77
2022-12-06T11:15:18.164Z,2.10
2022-12-06T11:17:55.832Z,1.88
2022-12-06T11:20:28.928Z,2.10
2022-12-06T11:23:05.933Z,2.60
2022-12-06T11:25:32.228Z,2.03
2022-12-06T11:28:21.734Z,1.90
2022-12-06T11:30:52.431Z,2.50
2022-12-06T11:33:21.155Z,3.00
2022-12-06T11:35:48.075Z,3.33
2022-12-06T11:38:15.443Z,3.22
2022-12-06T11:40:43.449Z,3.72
2022-12-06T11:43:13.267Z,2.85
2022-12-06T11:45:40.710Z,2.63
2022-12-06T11:48:18.670Z,2.70
2022-12-06T11:50:46.216Z,2.35
2022-12-06T11:53:19.286Z,2.30
2022-12-06T11:55:47.980Z,2.10
2022-12-06T11:58:30.500Z,1.63
2022-12-06T12:00:58.742Z,1.92
2022-12-06T12:03:32.442Z,2.05
2022-12-06T12:06:08.060Z,2.08
2022-12-06T12:08:34.530Z,1.95
2022-12-06T12:11:01.881Z,1.80
2022-12-06T12:13:47.122Z,2.10
2022-12-06T12:16:16.451Z,2.30
2022-12-06T12:18:51.020Z,1.90
2022-12-06T12:21:17.814Z,1.95
2022-12-06T12:23:45.573Z,1.70
2022-12-06T12:26:16.456Z,2.67
2022-12-06T12:28:44.148Z,1.90
2022-12-06T12:31:18.945Z,1.60
2022-12-06T12:33:45.442Z,1.73
2022-12-06T12:36:25.435Z,1.80
2022-12-06T12:38:57.848Z,1.77
2022-12-06T12:41:24.099Z,1.70
2022-12-06T12:44:13.767Z,1.50
2022-12-06T12:46:44.178Z,1.40
2022-12-06T12:49:23.330Z,1.63
2022-12-06T12:51:49.790Z,1.85
2022-12-06T12:54:20.393Z,1.40
2022-12-06T12:56:46.684Z,1.67
2022-12-06T12:59:15.173Z,1.65
2022-12-06T13:02:00.442Z,1.90
2022-12-06T13:04:43.600Z,1.50
2022-12-06T13:07:09.850Z,1.50
2022-12-06T13:09:45.444Z,2.13
2022-12-06T13:12:18.041Z,1.57
2022-12-06T13:14:48.626Z,2.22
2022-12-06T13:17:15.085Z,1.63
2022-12-06T13:19:50.172Z,1.50
2022-12-06T13:22:27.211Z,1.70
2022-12-06T13:25:04.317Z,1.65
2022-12-06T13:27:42.433Z,1.70
2022-12-06T13:30:13.103Z,1.65
2022-12-06T13:32:42.891Z,1.88
2022-12-06T13:35:21.399Z,1.60
2022-12-06T13:37:55.765Z,1.40
2022-12-06T13:40:39.300Z,2.33
2022-12-06T13:43:17.337Z,1.90
2022-12-06T13:45:45.716Z,1.52
2022-12-06T13:48:24.152Z,1.55
2022-12-06T13:50:54.838Z,1.90
2022-12-06T13:53:22.177Z,1.45
2022-12-06T13:55:58.926Z,1.40
2022-12-06T13:58:25.870Z,1.48
2022-12-06T14:00:53.010Z,1.90
2022-12-06T14:03:19.387Z,1.52
2022-12-06T14:08:32.224Z,1.67
2022-12-06T14:11:17.426Z,1.50
2022-12-06T14:14:08.606Z,1.40
2022-12-06T14:16:39.676Z,1.45
2022-12-06T14:19:14.516Z,1.65
2022-12-06T14:21:42.230Z,1.40
2022-12-06T14:24:44.294Z,1.10
2022-12-06T14:27:10.587Z,1.83
2022-12-06T14:29:36.957Z,1.45
2022-12-06T14:32:03.485Z,1.60
2022-12-06T14:34:30.907Z,1.55
2022-12-06T14:36:58.611Z,1.40
2022-12-06T14:39:26.794Z,1.33
2022-12-06T14:42:18.699Z,1.67
2022-12-06T14:44:53.293Z,1.65
2022-12-06T14:47:22.674Z,1.48
2022-12-06T14:50:18.666Z,1.90
2022-12-06T14:53:14.286Z,1.40
2022-12-06T14:55:52.940Z,1.25
2022-12-06T14:58:21.565Z,1.80
2022-12-06T15:00:56.728Z,1.60
2022-12-06T15:03:26.371Z,1.80
2022-12-06T15:06:09.444Z,1.83
2022-12-06T15:08:37.455Z,1.77
2022-12-06T15:11:06.016Z,1.73
2022-12-06T15:13:32.485Z,1.70
2022-12-06T15:16:12.534Z,1.95
2022-12-06T15:18:41.631Z,1.55
2022-12-06T15:21:15.570Z,1.73
2022-12-06T15:23:54.778Z,1.85
2022-12-06T15:26:21.923Z,1.75
2022-12-06T15:28:51.262Z,1.60
2022-12-06T15:31:19.715Z,1.52
2022-12-06T15:33:46.167Z,2.10
2022-12-06T15:36:17.315Z,2.00
2022-12-06T15:38:43.802Z,1.85
2022-12-06T15:41:14.511Z,1.95
2022-12-06T15:43:41.050Z,1.85
2022-12-06T15:46:09.414Z,1.48
2022-12-06T15:48:37.471Z,1.58
2022-12-06T15:51:09.271Z,1.75
2022-12-06T15:53:37.016Z,1.70
2022-12-06T15:56:03.313Z,1.77
2022-12-06T15:58:29.552Z,1.50
2022-12-06T16:00:57.534Z,1.23
2022-12-06T16:03:23.927Z,1.80
2022-12-06T16:05:50.410Z,1.90
2022-12-06T16:08:16.933Z,1.80
2022-12-06T16:11:10.969Z,1.60
2022-12-06T16:13:31.277Z,1.92
2022-12-06T16:15:57.590Z,1.92
2022-12-06T16:18:23.891Z,2.00
2022-12-06T16:20:50.287Z,2.28
2022-12-06T16:24:10.850Z,2.58
2022-12-06T16:26:22.736Z,2.45
2022-12-06T16:28:48.986Z,2.50
2022-12-06T16:31:15.541Z,2.67
2022-12-06T16:33:42.211Z,2.65
2022-12-06T16:36:13.465Z,2.60
2022-12-06T16:38:39.875Z,3.00
2022-12-06T16:41:07.498Z,3.08
2022-12-06T16:43:33.789Z,3.17
2022-12-06T16:46:13.767Z,2.72
2022-12-06T16:48:40.171Z,2.70
2022-12-06T16:51:06.461Z,2.80
2022-12-06T16:53:32.681Z,2.65
2022-12-06T16:56:02.058Z,2.25
2022-12-06T16:58:28.321Z,2.63
2022-12-06T17:00:54.817Z,2.40
2022-12-06T17:03:21.134Z,2.95
2022-12-06T17:05:47.470Z,2.95
2022-12-06T17:08:20.220Z,2.80
2022-12-06T17:10:48.088Z,2.63
2022-12-06T17:13:14.822Z,2.25
2022-12-06T17:15:41.061Z,2.50
2022-12-06T17:18:07.576Z,2.30
2022-12-06T17:20:33.986Z,2.58
2022-12-06T17:23:00.551Z,2.47
2022-12-06T17:25:26.810Z,2.20
2022-12-06T17:27:53.211Z,2.17
2022-12-06T17:30:19.983Z,2.40
2022-12-06T17:32:47.175Z,2.90
2022-12-06T17:35:14.265Z,2.10
2022-12-06T17:37:40.532Z,2.50
2022-12-06T17:40:07.178Z,2.47
2022-12-06T17:42:52.676Z,2.30
2022-12-06T17:45:24.556Z,2.35
2022-12-06T17:47:51.088Z,2.33
2022-12-06T17:50:17.749Z,2.58
2022-12-06T17:52:44.168Z,2.55
2022-12-06T17:55:12.952Z,2.33
2022-12-06T17:57:39.269Z,2.53
2022-12-06T18:00:08.788Z,2.50
2022-12-06T18:02:35.190Z,2.95
2022-12-06T18:05:01.770Z,2.40
2022-12-06T18:07:28.223Z,2.40
2022-12-06T18:09:54.557Z,2.72
2022-12-06T18:12:20.823Z,2.72
2022-12-06T18:14:47.125Z,2.60
2022-12-06T18:17:13.445Z,2.80
2022-12-06T18:19:40.745Z,2.20
2022-12-06T18:22:07.689Z,2.70
2022-12-06T18:24:36.073Z,2.42
2022-12-06T18:27:03.333Z,2.45
2022-12-06T18:29:29.626Z,2.38
2022-12-06T18:31:56.060Z,2.38
2022-12-06T18:34:22.777Z,2.53
2022-12-06T18:36:49.128Z,2.53
2022-12-06T18:39:16.647Z,2.45
2022-12-06T18:41:43.540Z,2.83
2022-12-06T18:44:10.170Z,2.50
2022-12-06T18:46:39.455Z,2.28
2022-12-06T18:49:06.114Z,3.08
2022-12-06T18:51:33.754Z,2.42
2022-12-06T18:54:02.214Z,2.70
2022-12-06T18:56:30.221Z,2.65
2022-12-06T18:59:00.440Z,3.28
2022-12-06T19:01:28.361Z,3.25
2022-12-06T19:03:55.731Z,2.70
2022-12-06T19:06:24.250Z,2.92
2022-12-06T19:08:51.039Z,2.88
2022-12-06T19:11:20.778Z,2.90
2022-12-06T19:13:50.758Z,2.83
2022-12-06T19:16:17.814Z,3.10
2022-12-06T19:18:44.168Z,3.60
2022-12-06T19:21:10.502Z,3.50
2022-12-06T19:23:36.737Z,3.13
2022-12-06T19:26:03.925Z,3.22
2022-12-06T19:28:30.883Z,3.42
2022-12-06T19:31:01.136Z,2.80
2022-12-06T19:33:27.931Z,4.07
2022-12-06T19:36:01.992Z,3.20
2022-12-06T19:38:28.653Z,3.00
2022-12-06T19:40:55.311Z,2.83
2022-12-06T19:43:44.997Z,3.83
2022-12-06T19:46:13.084Z,3.08
2022-12-06T19:48:39.830Z,3.42
2022-12-06T19:51:09.335Z,3.42
2022-12-06T19:53:36.974Z,3.03
2022-12-06T19:56:04.458Z,3.85
2022-12-06T19:58:31.007Z,2.90
2022-12-06T20:00:57.431Z,3.63
2022-12-06T20:03:24.023Z,3.38
2022-12-06T20:05:50.386Z,3.30
2022-12-06T20:08:16.870Z,3.97
2022-12-06T20:10:44.047Z,3.95
2022-12-06T20:13:10.795Z,4.03
2022-12-06T20:15:37.119Z,3.92
2022-12-06T20:18:03.721Z,4.38
2022-12-06T20:20:30.255Z,3.83
2022-12-06T20:22:56.559Z,4.32
2022-12-06T20:25:22.830Z,3.63
2022-12-06T20:27:52.211Z,3.90
2022-12-06T20:30:28.506Z,4.00
2022-12-06T20:32:54.870Z,4.18
2022-12-06T20:35:21.400Z,4.63
2022-12-06T20:37:51.399Z,4.22
2022-12-06T20:40:17.751Z,4.20
2022-12-06T20:42:45.971Z,4.40
2022-12-06T20:45:12.476Z,4.38
2022-12-06T20:47:38.766Z,3.70
2022-12-06T20:50:05.582Z,4.57
2022-12-06T20:52:34.180Z,4.53
2022-12-06T20:55:00.441Z,5.28
2022-12-06T20:57:27.059Z,5.05
2022-12-06T20:59:53.446Z,4.63
2022-12-06T21:02:19.810Z,4.05
2022-12-06T21:04:46.170Z,4.70
2022-12-06T21:07:12.547Z,4.45
2022-12-06T21:09:38.851Z,4.65
2022-12-06T21:12:05.211Z,5.35
2022-12-06T21:14:31.743Z,3.90
2022-12-06T21:16:57.990Z,3.90
2022-12-06T21:19:24.251Z,4.30
2022-12-06T21:21:53.199Z,4.75
2022-12-06T21:24:21.112Z,4.78
2022-12-06T21:26:47.913Z,4.80
2022-12-06T21:29:15.564Z,4.43
2022-12-06T21:31:42.088Z,3.95
2022-12-06T21:34:08.349Z,4.55
2022-12-06T21:36:34.646Z,5.05
2022-12-06T21:39:01.117Z,4.60
2022-12-06T21:41:27.683Z,3.80
2022-12-06T21:43:54.284Z,4.28
2022-12-06T21:46:22.078Z,4.72
2022-12-06T21:48:52.689Z,3.90
2022-12-06T21:51:19.189Z,3.80
2022-12-06T21:53:45.635Z,5.22
2022-12-06T21:56:14.140Z,4.43
2022-12-06T21:58:40.520Z,3.72
2022-12-06T22:01:07.869Z,3.90
2022-12-06T22:03:34.243Z,4.32
2022-12-06T22:06:18.981Z,3.97
2022-12-06T22:08:46.385Z,3.63
2022-12-06T22:11:14.696Z,3.60
2022-12-06T22:13:41.176Z,3.97
2022-12-06T22:16:08.652Z,4.40
2022-12-06T22:18:38.756Z,4.15
2022-12-06T22:21:14.641Z,3.67
2022-12-06T22:23:40.934Z,4.55
2022-12-06T22:26:08.891Z,4.55
2022-12-06T22:28:35.134Z,4.82
2022-12-06T22:31:11.896Z,5.07
2022-12-06T22:33:38.298Z,4.70
2022-12-06T22:36:04.939Z,4.97
2022-12-06T22:38:31.324Z,4.57
2022-12-06T22:40:58.514Z,4.35
2022-12-06T22:43:25.297Z,5.43
2022-12-06T22:45:51.916Z,5.15
2022-12-06T22:48:18.257Z,4.05
2022-12-06T22:50:44.537Z,4.75
2022-12-06T22:53:10.874Z,5.10
2022-12-06T22:55:37.143Z,4.05
2022-12-06T22:58:05.367Z,4.75
2022-12-06T23:00:31.635Z,4.18
2022-12-06T23:02:58.294Z,4.28
2022-12-06T23:05:24.579Z,4.18
2022-12-06T23:07:50.922Z,4.57
2022-12-06T23:10:17.411Z,4.25
2022-12-06T23:12:43.652Z,4.30
2022-12-06T23:15:10.122Z,4.65
2022-12-06T23:17:36.528Z,4.63
2022-12-06T23:20:04.143Z,4.38
2022-12-06T23:22:31.846Z,4.65
2022-12-06T23:24:58.068Z,4.60
2022-12-06T23:27:27.262Z,3.85
2022-12-06T23:29:53.570Z,4.13
2022-12-06T23:32:19.913Z,4.95
2022-12-06T23:34:46.256Z,4.20
2022-12-06T23:37:12.745Z,4.00
2022-12-06T23:39:39.180Z,4.70
2022-12-06T23:42:05.479Z,4.20
2022-12-06T23:44:31.739Z,4.05
2022-12-06T23:46:58.043Z,5.35
2022-12-06T23:49:24.362Z,4.10
2022-12-06T23:51:50.596Z,4.78
2022-12-06T23:54:17.464Z,4.05
2022-12-06T23:56:44.450Z,4.78
2022-12-06T23:59:12.057Z,5.38
